Pagrindinis puslapis
METAR-TAF:

METAR-TAF

Oro uostai :

Pekanbaru, Indonezija

platuma: 00-28N, ilguma: 101-27E, Aukštis: 31 m

Dabartinis oras

Ataskaita buvo paskelbta 42 minutes, ne 09:30 UTC
Vėjas 5 kt iš Šiaurės Rytų
Temperatūra 30°C
Drėgmė 66%
Slėgis 1005 hPa
Matomumas: 9000 m
Išsisklaidę debesys ne aukštis 1500 ft

METAR: WIBB 170930Z 04005KT 9000 SCT015 30/23 Q1005

Laikas: 17:12 (10:12 UTC)


TAF: trūkstamas

Orai ataskaitas ir orų prognozės (METAR, TAF).

turimą stotys yra geltonos ir raudonos taškus žemėlapyje.

Perkelti pele per norėdami pamatyti stoties vardą.

Tada spustelėkite, norėdami matyti oro stebėjimo ir prognozės.

Norėdami pakeisti žemėlapį: spustelėkite ant žalios mygtukų su juodo kryžiaus žemyn,; žalią mygtuką su brūkšneliu, jei norite nutolinti; arba žalių rodyklių gretimoms žemėlapius.


METAR-TAF: